Time;durP1;ratioP1;P1;durP2;ratioP2;P2;SDS_P1;SDS_P2;PMS_P1;PMS_P2;Temp;Humidity;BMP_temperature;BMP_pressure;BME280_temperature;BME280_humidity;BME280_pressure;Samples;Min_cycle;Max_cycle;Signal;HPM_P1;HPM_P2
2024/01/19 11:06:13;;;;;;;13.20;12.50;;;;;;;;;;5098158;27;20403;-71
2024/01/19 11:08:39;;;;;;;12.40;11.80;;;;;;;;;;5082731;28;20032;-65
2024/01/19 11:11:05;;;;;;;12.65;11.95;;;;;;;;;;5084994;28;20015;-66
2024/01/19 11:13:35;;;;;;;12.07;11.48;;;;;;;;;;5075633;28;20118;-64
2024/01/19 11:16:02;;;;;;;12.25;11.63;;;;;;;;;;5056316;28;20020;-67
2024/01/19 11:18:29;;;;;;;12.50;11.82;;;;;;;;;;5070859;28;20038;-64
2024/01/19 11:20:54;;;;;;;11.68;11.07;;;;;;;;;;5077840;28;20070;-65
2024/01/19 11:23:20;;;;;;;11.18;10.68;;;;;;;;;;5085582;28;20020;-67
2024/01/19 11:25:55;;;;;;;10.90;10.40;;;;;;;;;;5064091;28;20055;-66
2024/01/19 11:28:22;;;;;;;10.80;10.30;;;;;;;;;;5082614;28;20033;-66
2024/01/19 11:31:06;;;;;;;11.73;11.13;;;;;;;;;;5080533;28;20016;-67
2024/01/19 11:33:32;;;;;;;12.00;11.38;;;;;;;;;;5082202;28;20016;-67
2024/01/19 11:35:57;;;;;;;11.90;11.30;;;;;;;;;;5076767;28;20023;-68
2024/01/19 11:38:38;;;;;;;11.55;10.95;;;;;;;;;;5081905;28;20474;-67
2024/01/19 11:41:03;;;;;;;11.27;10.70;;;;;;;;;;5080034;28;20093;-66
2024/01/19 11:43:35;;;;;;;11.48;10.88;;;;;;;;;;5077089;28;20012;-67
2024/01/19 11:46:01;;;;;;;10.52;10.02;;;;;;;;;;5083029;28;20017;-66
2024/01/19 11:48:42;;;;;;;10.60;10.10;;;;;;;;;;5083951;28;20382;-66
2024/01/19 11:51:08;;;;;;;11.82;11.23;;;;;;;;;;5077531;28;20016;-66
2024/01/19 11:53:52;;;;;;;10.82;10.32;;;;;;;;;;5069815;28;20016;-66
2024/01/19 11:56:21;;;;;;;11.60;11.00;;;;;;;;;;5076163;28;20024;-67
2024/01/19 11:58:47;;;;;;;10.57;10.07;;;;;;;;;;5079150;28;20020;-67
2024/01/19 12:01:12;;;;;;;11.00;10.50;;;;;;;;;;5078140;28;20016;-66
2024/01/19 12:03:38;;;;;;;11.10;10.60;;;;;;;;;;5072749;28;20025;-65
2024/01/19 12:06:05;;;;;;;11.95;11.35;;;;;;;;;;5069245;28;20410;-64
2024/01/19 12:08:31;;;;;;;11.35;10.80;;;;;;;;;;5066423;28;20048;-63
2024/01/19 12:11:03;;;;;;;12.65;11.95;;;;;;;;;;5052559;28;20043;-64
2024/01/19 12:13:30;;;;;;;12.20;11.57;;;;;;;;;;5061571;28;20417;-65
2024/01/19 12:15:55;;;;;;;12.32;11.63;;;;;;;;;;5063259;28;21552;-65
2024/01/19 12:18:21;;;;;;;12.90;12.20;;;;;;;;;;5060543;28;20104;-64
2024/01/19 12:20:47;;;;;;;11.10;10.60;;;;;;;;;;5066112;28;20099;-64
2024/01/19 12:23:15;;;;;;;12.60;11.95;;;;;;;;;;5063441;28;20016;-63
2024/01/19 12:25:40;;;;;;;12.65;11.95;;;;;;;;;;5059314;28;20024;-66
2024/01/19 12:28:06;;;;;;;11.20;10.65;;;;;;;;;;5057989;28;20160;-64
2024/01/19 12:30:32;;;;;;;12.32;11.63;;;;;;;;;;5057873;28;20506;-64
2024/01/19 12:32:58;;;;;;;11.88;11.25;;;;;;;;;;5052606;28;20051;-64
2024/01/19 12:35:23;;;;;;;11.73;11.13;;;;;;;;;;5062660;28;20025;-64
2024/01/19 12:37:49;;;;;;;11.35;10.75;;;;;;;;;;5058259;28;20017;-65
2024/01/19 12:40:18;;;;;;;12.05;11.45;;;;;;;;;;5054073;28;20024;-64
2024/01/19 12:42:44;;;;;;;11.35;10.77;;;;;;;;;;5062855;28;20024;-65
2024/01/19 12:45:14;;;;;;;12.13;11.52;;;;;;;;;;5052156;28;20435;-66
2024/01/19 12:47:42;;;;;;;12.90;12.20;;;;;;;;;;5058508;28;20548;-67
2024/01/19 12:50:08;;;;;;;13.18;12.38;;;;;;;;;;5056982;28;20057;-65
2024/01/19 12:52:33;;;;;;;11.38;10.77;;;;;;;;;;5058780;28;20112;-64
2024/01/19 12:54:58;;;;;;;12.10;11.45;;;;;;;;;;5054836;28;20053;-66
2024/01/19 12:57:24;;;;;;;16.10;15.02;;;;;;;;;;5057700;28;20567;-65
2024/01/19 13:00:06;;;;;;;12.73;12.02;;;;;;;;;;5033431;28;20100;-70
2024/01/19 13:02:31;;;;;;;13.50;12.70;;;;;;;;;;5046925;28;20036;-66
2024/01/19 13:04:57;;;;;;;13.35;12.57;;;;;;;;;;5048393;28;20414;-66
2024/01/19 13:07:23;;;;;;;12.80;12.10;;;;;;;;;;5037568;28;20029;-66
2024/01/19 13:09:59;;;;;;;12.88;12.18;;;;;;;;;;5053363;28;20033;-66
2024/01/19 13:12:24;;;;;;;13.07;12.30;;;;;;;;;;5057119;28;20036;-67
2024/01/19 13:14:50;;;;;;;13.18;12.48;;;;;;;;;;5041288;28;20029;-68
2024/01/19 13:17:22;;;;;;;12.98;12.23;;;;;;;;;;5053240;28;20017;-65
2024/01/19 13:19:47;;;;;;;12.70;12.00;;;;;;;;;;5053960;28;20478;-67
2024/01/19 13:22:14;;;;;;;11.95;11.35;;;;;;;;;;5053942;28;20035;-66
2024/01/19 13:24:39;;;;;;;13.02;12.30;;;;;;;;;;5052557;28;20107;-67
2024/01/19 13:27:04;;;;;;;12.02;11.43;;;;;;;;;;5056134;28;20103;-66
2024/01/19 13:29:30;;;;;;;13.35;12.55;;;;;;;;;;5053041;28;20096;-66
2024/01/19 13:31:56;;;;;;;11.88;11.27;;;;;;;;;;5055992;28;20028;-64
2024/01/19 13:34:26;;;;;;;13.07;12.32;;;;;;;;;;5061217;28;20576;-65
2024/01/19 13:36:52;;;;;;;12.35;11.65;;;;;;;;;;5053907;28;20017;-67
2024/01/19 13:39:17;;;;;;;12.65;11.95;;;;;;;;;;5056173;28;20025;-66
2024/01/19 13:41:42;;;;;;;12.30;11.60;;;;;;;;;;5057362;28;20033;-66
2024/01/19 13:44:08;;;;;;;12.57;11.88;;;;;;;;;;5053115;28;20104;-67
2024/01/19 13:46:33;;;;;;;12.35;11.65;;;;;;;;;;5052759;28;20051;-66
2024/01/19 13:48:59;;;;;;;13.15;12.35;;;;;;;;;;5057127;28;20131;-66
2024/01/19 13:51:24;;;;;;;12.10;11.43;;;;;;;;;;5053307;28;21827;-64
2024/01/19 13:53:49;;;;;;;12.88;12.18;;;;;;;;;;5051558;28;20036;-65
2024/01/19 13:56:15;;;;;;;12.80;12.07;;;;;;;;;;5052228;28;20020;-64
2024/01/19 13:58:40;;;;;;;12.40;11.70;;;;;;;;;;5057849;28;20159;-65
2024/01/19 14:01:09;;;;;;;12.57;11.88;;;;;;;;;;5049734;28;20021;-66
2024/01/19 14:03:34;;;;;;;12.45;11.75;;;;;;;;;;5051963;28;20029;-64
2024/01/19 14:06:00;;;;;;;12.07;11.43;;;;;;;;;;5050600;28;20125;-65
2024/01/19 14:08:25;;;;;;;13.98;13.13;;;;;;;;;;5052327;28;20043;-65
2024/01/19 14:10:51;;;;;;;13.05;12.30;;;;;;;;;;5053424;28;20024;-65
2024/01/19 14:13:17;;;;;;;11.93;11.32;;;;;;;;;;5043376;28;20027;-64
2024/01/19 14:15:44;;;;;;;13.90;13.07;;;;;;;;;;5052238;28;20385;-65
2024/01/19 14:18:10;;;;;;;12.57;11.88;;;;;;;;;;5053194;28;20017;-65
2024/01/19 14:20:35;;;;;;;12.52;11.82;;;;;;;;;;5053063;28;20024;-66
2024/01/19 14:23:01;;;;;;;12.65;11.95;;;;;;;;;;5041807;28;20065;-67
2024/01/19 14:25:26;;;;;;;13.23;12.43;;;;;;;;;;5043655;28;20028;-69
2024/01/19 14:27:52;;;;;;;11.55;10.95;;;;;;;;;;5060739;28;20120;-66
2024/01/19 14:30:17;;;;;;;11.82;11.23;;;;;;;;;;5064353;28;20024;-66
2024/01/19 14:32:42;;;;;;;11.88;11.27;;;;;;;;;;5042955;28;20078;-69
2024/01/19 14:35:08;;;;;;;12.30;11.60;;;;;;;;;;5067933;28;20479;-69
2024/01/19 14:37:33;;;;;;;11.70;11.10;;;;;;;;;;5057310;28;20025;-66
2024/01/19 14:39:59;;;;;;;11.38;10.85;;;;;;;;;;5068042;28;20440;-64
2024/01/19 14:42:24;;;;;;;11.43;10.82;;;;;;;;;;5047222;28;20099;-66
2024/01/19 14:44:50;;;;;;;11.50;10.90;;;;;;;;;;5054377;28;20436;-65
2024/01/19 14:47:15;;;;;;;12.30;11.60;;;;;;;;;;5080056;28;20027;-65
2024/01/19 14:49:43;;;;;;;12.07;11.43;;;;;;;;;;5065554;28;20191;-65
2024/01/19 14:52:08;;;;;;;11.35;10.75;;;;;;;;;;5060587;28;20036;-64
2024/01/19 14:54:34;;;;;;;11.07;10.57;;;;;;;;;;5058467;28;20028;-65
2024/01/19 14:56:59;;;;;;;11.27;10.68;;;;;;;;;;5053686;28;20410;-62
2024/01/19 14:59:25;;;;;;;11.48;10.88;;;;;;;;;;5046031;28;20545;-63
2024/01/19 15:01:51;;;;;;;11.98;11.35;;;;;;;;;;5057038;28;20345;-62
2024/01/19 15:04:17;;;;;;;11.57;10.98;;;;;;;;;;5066137;28;20032;-61
2024/01/19 15:06:45;;;;;;;11.07;10.57;;;;;;;;;;5065093;28;20571;-63
2024/01/19 15:09:10;;;;;;;12.52;11.82;;;;;;;;;;5070786;28;20028;-62
2024/01/19 15:11:35;;;;;;;11.43;10.82;;;;;;;;;;5060151;28;20474;-62
2024/01/19 15:14:01;;;;;;;11.57;10.98;;;;;;;;;;5061019;28;20469;-61
2024/01/19 15:16:26;;;;;;;11.68;11.07;;;;;;;;;;5063889;28;20056;-62
2024/01/19 15:18:51;;;;;;;11.48;10.88;;;;;;;;;;5065052;28;20012;-62
2024/01/19 15:21:17;;;;;;;11.38;10.80;;;;;;;;;;5061650;28;20033;-62
2024/01/19 15:23:43;;;;;;;12.55;11.85;;;;;;;;;;5063534;28;20078;-62
2024/01/19 15:26:09;;;;;;;11.38;10.77;;;;;;;;;;5066966;28;20673;-62
2024/01/19 15:28:34;;;;;;;11.18;10.65;;;;;;;;;;5067491;28;20040;-62
2024/01/19 15:30:59;;;;;;;10.40;9.90;;;;;;;;;;5058379;28;20025;-62
2024/01/19 15:33:25;;;;;;;11.30;10.70;;;;;;;;;;5058347;28;20378;-62
2024/01/19 15:35:50;;;;;;;11.55;10.95;;;;;;;;;;5064780;28;20056;-62
2024/01/19 15:38:15;;;;;;;11.05;10.55;;;;;;;;;;5068350;28;20021;-62
2024/01/19 15:40:41;;;;;;;10.93;10.43;;;;;;;;;;5044046;28;20016;-61
2024/01/19 15:43:06;;;;;;;11.23;10.68;;;;;;;;;;5066071;28;20012;-62
2024/01/19 15:45:31;;;;;;;11.13;10.60;;;;;;;;;;5070815;28;20025;-61
2024/01/19 15:47:57;;;;;;;10.93;10.43;;;;;;;;;;5065053;28;20090;-63
2024/01/19 15:50:23;;;;;;;11.32;10.73;;;;;;;;;;5074860;28;20027;-61
2024/01/19 15:52:51;;;;;;;10.70;10.20;;;;;;;;;;5068136;28;20044;-63
2024/01/19 15:55:16;;;;;;;11.70;11.10;;;;;;;;;;5078149;28;20019;-62
2024/01/19 15:57:41;;;;;;;12.00;11.40;;;;;;;;;;5074900;28;20107;-63
2024/01/19 16:00:07;;;;;;;12.52;11.82;;;;;;;;;;5071910;28;20420;-62
2024/01/19 16:02:32;;;;;;;11.60;11.00;;;;;;;;;;5058315;28;20043;-62
2024/01/19 16:04:58;;;;;;;10.90;10.40;;;;;;;;;;5064974;28;20040;-62
2024/01/19 16:07:23;;;;;;;11.45;10.85;;;;;;;;;;5053583;28;20032;-62
2024/01/19 16:09:52;;;;;;;11.05;10.55;;;;;;;;;;5070577;28;20028;-63
2024/01/19 16:12:17;;;;;;;11.15;10.57;;;;;;;;;;5072139;28;20124;-63
2024/01/19 16:14:42;;;;;;;11.65;11.05;;;;;;;;;;5068289;28;20099;-61
2024/01/19 16:17:09;;;;;;;11.88;11.27;;;;;;;;;;5064017;28;20017;-61
2024/01/19 16:19:36;;;;;;;11.32;10.73;;;;;;;;;;5068088;28;20522;-61
2024/01/19 16:22:02;;;;;;;11.23;10.68;;;;;;;;;;5068075;28;20047;-61
2024/01/19 16:24:28;;;;;;;12.32;11.63;;;;;;;;;;5069529;28;20044;-63
2024/01/19 16:27:00;;;;;;;11.55;10.95;;;;;;;;;;5053638;28;20054;-63
2024/01/19 16:29:26;;;;;;;12.30;11.60;;;;;;;;;;5076507;28;20095;-62
2024/01/19 16:31:51;;;;;;;12.02;11.40;;;;;;;;;;5064198;28;20103;-62
2024/01/19 16:34:18;;;;;;;11.43;10.82;;;;;;;;;;5065237;28;20047;-62
2024/01/19 16:36:43;;;;;;;12.02;11.43;;;;;;;;;;5060020;28;20389;-62
2024/01/19 16:39:09;;;;;;;13.30;12.50;;;;;;;;;;5049231;28;20339;-62
2024/01/19 16:41:41;;;;;;;11.30;10.70;;;;;;;;;;5066425;28;20028;-62
2024/01/19 16:44:07;;;;;;;13.98;13.10;;;;;;;;;;5057338;28;20021;-61
2024/01/19 16:46:32;;;;;;;11.57;10.98;;;;;;;;;;5048626;28;20162;-62
2024/01/19 16:48:58;;;;;;;11.98;11.35;;;;;;;;;;5051404;28;20119;-62
2024/01/19 16:51:23;;;;;;;11.52;10.93;;;;;;;;;;5065999;28;20033;-62
2024/01/19 16:53:55;;;;;;;13.02;12.27;;;;;;;;;;5070453;28;20076;-63
2024/01/19 16:56:20;;;;;;;11.23;10.63;;;;;;;;;;5070224;28;20068;-63
2024/01/19 16:58:46;;;;;;;11.00;10.50;;;;;;;;;;5051682;28;20012;-62
2024/01/19 17:01:11;;;;;;;11.68;11.07;;;;;;;;;;5075775;28;20016;-62
2024/01/19 17:03:37;;;;;;;12.50;11.80;;;;;;;;;;5063769;28;20020;-61
2024/01/19 17:06:02;;;;;;;11.32;10.73;;;;;;;;;;5060421;28;20051;-63
2024/01/19 17:08:28;;;;;;;11.27;10.68;;;;;;;;;;5069300;28;20016;-62
2024/01/19 17:10:53;;;;;;;11.60;11.00;;;;;;;;;;5068019;28;20450;-62
2024/01/19 17:13:18;;;;;;;12.35;11.65;;;;;;;;;;5070036;28;20028;-63
2024/01/19 17:15:44;;;;;;;11.05;10.55;;;;;;;;;;5061449;28;20036;-63
2024/01/19 17:18:09;;;;;;;11.88;11.25;;;;;;;;;;5070935;28;20166;-62
2024/01/19 17:20:34;;;;;;;10.80;10.30;;;;;;;;;;5072036;28;20024;-64
2024/01/19 17:23:00;;;;;;;11.40;10.80;;;;;;;;;;5066730;28;20009;-63
2024/01/19 17:25:25;;;;;;;10.93;10.43;;;;;;;;;;5072463;28;20522;-63
2024/01/19 17:27:51;;;;;;;10.70;10.20;;;;;;;;;;5070900;28;20020;-63
2024/01/19 17:30:19;;;;;;;11.95;11.27;;;;;;;;;;5069694;28;20024;-62
2024/01/19 17:32:45;;;;;;;10.50;10.00;;;;;;;;;;5068384;28;20018;-62
2024/01/19 17:35:10;;;;;;;11.00;10.50;;;;;;;;;;5066633;28;20020;-62
2024/01/19 17:37:36;;;;;;;11.32;10.75;;;;;;;;;;5055616;28;20017;-62
2024/01/19 17:40:01;;;;;;;10.70;10.20;;;;;;;;;;5069993;28;20070;-62
2024/01/19 17:42:27;;;;;;;11.20;10.60;;;;;;;;;;5053928;28;20380;-63
2024/01/19 17:44:52;;;;;;;12.35;11.65;;;;;;;;;;5045502;28;20139;-62
2024/01/19 17:47:17;;;;;;;11.90;11.30;;;;;;;;;;5061274;28;20021;-63
2024/01/19 17:49:42;;;;;;;11.43;10.82;;;;;;;;;;5065055;28;20046;-62
2024/01/19 17:52:09;;;;;;;10.90;10.40;;;;;;;;;;5050589;28;20024;-63
2024/01/19 17:54:34;;;;;;;10.85;10.35;;;;;;;;;;5071060;28;20028;-63
2024/01/19 17:56:59;;;;;;;11.18;10.65;;;;;;;;;;5071779;28;20023;-63
2024/01/19 17:59:25;;;;;;;11.98;11.27;;;;;;;;;;5067178;28;20067;-62
2024/01/19 18:01:50;;;;;;;11.60;11.00;;;;;;;;;;5070383;28;20012;-62
2024/01/19 18:04:15;;;;;;;11.02;10.52;;;;;;;;;;5065441;28;20047;-61
2024/01/19 18:06:41;;;;;;;10.45;9.95;;;;;;;;;;5069470;28;20036;-63
2024/01/19 18:09:07;;;;;;;11.70;11.10;;;;;;;;;;5067394;28;20028;-63
2024/01/19 18:11:33;;;;;;;10.57;10.07;;;;;;;;;;5053000;28;20031;-63
2024/01/19 18:13:59;;;;;;;11.10;10.55;;;;;;;;;;5066096;28;20087;-62
2024/01/19 18:16:30;;;;;;;10.80;10.30;;;;;;;;;;5068124;28;20078;-63
2024/01/19 18:18:55;;;;;;;10.52;10.02;;;;;;;;;;5058693;28;20021;-63
2024/01/19 18:21:20;;;;;;;10.75;10.25;;;;;;;;;;5068265;28;20021;-63
2024/01/19 18:23:47;;;;;;;11.45;10.85;;;;;;;;;;5063168;28;20017;-63
2024/01/19 18:26:13;;;;;;;11.13;10.52;;;;;;;;;;5067099;28;20026;-63
2024/01/19 18:28:38;;;;;;;10.55;10.05;;;;;;;;;;5052547;28;20441;-63
2024/01/19 18:31:04;;;;;;;11.57;10.98;;;;;;;;;;5067967;28;20020;-62
2024/01/19 18:33:29;;;;;;;11.00;10.50;;;;;;;;;;5065449;28;20020;-62
2024/01/19 18:35:54;;;;;;;11.20;10.63;;;;;;;;;;5075860;28;20017;-62
2024/01/19 18:38:20;;;;;;;11.23;10.63;;;;;;;;;;5055695;28;20105;-63
2024/01/19 18:40:45;;;;;;;11.20;10.63;;;;;;;;;;5077551;28;20032;-62
2024/01/19 18:43:10;;;;;;;10.98;10.40;;;;;;;;;;5066295;28;20428;-62
2024/01/19 18:45:36;;;;;;;10.45;9.95;;;;;;;;;;5070421;28;20478;-62
2024/01/19 18:48:03;;;;;;;10.52;10.02;;;;;;;;;;5053571;28;20052;-63
2024/01/19 18:50:29;;;;;;;11.15;10.57;;;;;;;;;;5062866;28;20140;-63
2024/01/19 18:52:54;;;;;;;11.68;11.07;;;;;;;;;;5051799;28;20112;-61
2024/01/19 18:55:20;;;;;;;10.73;10.23;;;;;;;;;;5068184;28;20083;-61
2024/01/19 18:57:45;;;;;;;10.90;10.40;;;;;;;;;;5055748;28;20043;-62
2024/01/19 19:00:11;;;;;;;10.50;10.00;;;;;;;;;;5072947;28;20069;-61
2024/01/19 19:02:36;;;;;;;10.75;10.25;;;;;;;;;;5083340;28;20066;-62
2024/01/19 19:05:02;;;;;;;10.82;10.32;;;;;;;;;;5072307;28;20545;-61
2024/01/19 19:07:28;;;;;;;11.13;10.57;;;;;;;;;;5070349;28;20024;-62
2024/01/19 19:09:53;;;;;;;10.85;10.35;;;;;;;;;;5066521;28;20025;-62
2024/01/19 19:12:18;;;;;;;10.60;10.10;;;;;;;;;;5058345;28;20024;-62
2024/01/19 19:14:44;;;;;;;11.13;10.60;;;;;;;;;;5067124;28;20470;-62
2024/01/19 19:17:09;;;;;;;11.60;11.00;;;;;;;;;;5068978;28;20390;-62
2024/01/19 19:19:35;;;;;;;10.73;10.23;;;;;;;;;;5055492;28;20039;-62
2024/01/19 19:22:00;;;;;;;10.95;10.45;;;;;;;;;;5071857;28;20382;-64
2024/01/19 19:24:27;;;;;;;10.32;9.82;;;;;;;;;;5073225;28;20017;-62
2024/01/19 19:26:53;;;;;;;11.82;11.23;;;;;;;;;;5071569;28;20029;-62
2024/01/19 19:29:18;;;;;;;11.10;10.55;;;;;;;;;;5055337;28;20017;-62
2024/01/19 19:31:43;;;;;;;10.63;10.13;;;;;;;;;;5075087;28;20037;-62
2024/01/19 19:34:09;;;;;;;10.45;9.95;;;;;;;;;;5073785;28;20024;-62
2024/01/19 19:36:34;;;;;;;10.57;10.07;;;;;;;;;;5072235;28;20114;-61
2024/01/19 19:39:03;;;;;;;10.45;9.95;;;;;;;;;;5075580;28;20016;-62
2024/01/19 19:41:29;;;;;;;11.00;10.40;;;;;;;;;;5078190;28;20016;-62
2024/01/19 19:43:55;;;;;;;11.30;10.70;;;;;;;;;;5073273;28;20173;-62
2024/01/19 19:46:20;;;;;;;10.98;10.45;;;;;;;;;;5070592;28;20032;-63
2024/01/19 19:48:45;;;;;;;11.65;11.05;;;;;;;;;;5052033;28;20483;-64
2024/01/19 19:51:11;;;;;;;12.15;11.45;;;;;;;;;;5066483;28;20135;-63
2024/01/19 19:53:37;;;;;;;11.27;10.68;;;;;;;;;;5051667;28;20150;-64
2024/01/19 19:56:02;;;;;;;11.20;10.60;;;;;;;;;;5069450;28;20497;-63
2024/01/19 19:58:27;;;;;;;11.20;10.60;;;;;;;;;;5055940;28;20067;-63
2024/01/19 20:01:00;;;;;;;11.50;10.90;;;;;;;;;;5068367;28;20024;-62
2024/01/19 20:03:25;;;;;;;10.73;10.23;;;;;;;;;;5070560;28;20047;-62
2024/01/19 20:05:51;;;;;;;10.80;10.30;;;;;;;;;;5073727;28;20146;-63
2024/01/19 20:08:16;;;;;;;10.70;10.20;;;;;;;;;;5064137;28;20024;-64
2024/01/19 20:10:42;;;;;;;10.77;10.27;;;;;;;;;;5069140;28;20035;-63
2024/01/19 20:13:07;;;;;;;10.98;10.48;;;;;;;;;;5069439;28;20013;-63
2024/01/19 20:15:33;;;;;;;10.52;10.02;;;;;;;;;;5073030;28;20102;-63
2024/01/19 20:18:03;;;;;;;10.45;9.95;;;;;;;;;;5065568;28;20048;-63
2024/01/19 20:20:30;;;;;;;12.07;11.38;;;;;;;;;;5070243;28;20016;-62
2024/01/19 20:22:56;;;;;;;10.40;9.90;;;;;;;;;;5076595;28;20057;-63
2024/01/19 20:25:21;;;;;;;11.00;10.43;;;;;;;;;;5070095;28;20570;-62
2024/01/19 20:27:48;;;;;;;11.00;10.50;;;;;;;;;;5066194;28;20024;-62
2024/01/19 20:30:13;;;;;;;11.23;10.63;;;;;;;;;;5072878;28;20078;-62
2024/01/19 20:32:39;;;;;;;10.63;10.13;;;;;;;;;;5073274;28;20028;-61
2024/01/19 20:35:05;;;;;;;10.68;10.18;;;;;;;;;;5080135;28;20031;-62
2024/01/19 20:37:32;;;;;;;10.60;10.10;;;;;;;;;;5076775;28;20024;-62
2024/01/19 20:40:00;;;;;;;10.73;10.23;;;;;;;;;;5053059;28;20013;-61
2024/01/19 20:42:25;;;;;;;11.30;10.70;;;;;;;;;;5069033;28;20012;-61
2024/01/19 20:44:51;;;;;;;10.90;10.40;;;;;;;;;;5072489;28;20398;-61
2024/01/19 20:47:17;;;;;;;10.55;10.05;;;;;;;;;;5064516;28;20030;-61
2024/01/19 20:49:42;;;;;;;10.88;10.38;;;;;;;;;;5062084;28;20551;-60
2024/01/19 20:52:08;;;;;;;11.35;10.75;;;;;;;;;;5047201;28;20075;-62
2024/01/19 20:54:35;;;;;;;10.60;10.10;;;;;;;;;;5062181;28;20558;-62
2024/01/19 20:57:00;;;;;;;10.32;9.82;;;;;;;;;;5066793;28;20056;-62
2024/01/19 20:59:26;;;;;;;10.98;10.40;;;;;;;;;;5063500;28;20055;-62
2024/01/19 21:01:51;;;;;;;11.32;10.73;;;;;;;;;;5065432;28;20446;-62
2024/01/19 21:04:16;;;;;;;12.05;11.35;;;;;;;;;;5069713;28;20101;-61
2024/01/19 21:06:42;;;;;;;10.80;10.25;;;;;;;;;;5045870;28;20029;-61
2024/01/19 21:09:08;;;;;;;10.60;10.10;;;;;;;;;;5065758;28;20056;-61
2024/01/19 21:11:33;;;;;;;11.63;11.02;;;;;;;;;;5058781;28;20040;-61
2024/01/19 21:13:58;;;;;;;11.32;10.73;;;;;;;;;;5060060;28;20037;-62
2024/01/19 21:16:26;;;;;;;11.82;11.23;;;;;;;;;;5059891;28;20031;-62
2024/01/19 21:18:52;;;;;;;11.70;11.10;;;;;;;;;;5059933;28;20017;-61
2024/01/19 21:21:18;;;;;;;11.00;10.50;;;;;;;;;;5064378;28;20016;-62
2024/01/19 21:23:43;;;;;;;10.70;10.20;;;;;;;;;;5065992;28;20029;-62
2024/01/19 21:26:14;;;;;;;10.85;10.35;;;;;;;;;;5067144;28;20452;-61
2024/01/19 21:28:40;;;;;;;11.10;10.52;;;;;;;;;;5063284;28;20028;-61
2024/01/19 21:31:05;;;;;;;10.93;10.43;;;;;;;;;;5065409;28;20031;-62
2024/01/19 21:33:30;;;;;;;10.95;10.45;;;;;;;;;;5042054;28;20025;-61
2024/01/19 21:35:56;;;;;;;10.85;10.35;;;;;;;;;;5060592;28;20378;-61
2024/01/19 21:38:21;;;;;;;11.35;10.75;;;;;;;;;;5065503;28;20424;-61
2024/01/19 21:40:47;;;;;;;10.90;10.40;;;;;;;;;;5063145;28;20021;-62
2024/01/19 21:43:12;;;;;;;10.75;10.25;;;;;;;;;;5064611;28;21513;-62
2024/01/19 21:45:37;;;;;;;11.15;10.55;;;;;;;;;;5050268;28;20479;-62
2024/01/19 21:48:03;;;;;;;10.82;10.32;;;;;;;;;;5057906;28;20055;-62
2024/01/19 21:50:28;;;;;;;10.45;9.95;;;;;;;;;;5050601;28;20410;-62
2024/01/19 21:52:54;;;;;;;11.05;10.55;;;;;;;;;;5063033;28;20402;-61
2024/01/19 21:55:19;;;;;;;10.63;10.13;;;;;;;;;;5067268;28;20542;-62
2024/01/19 21:57:45;;;;;;;10.90;10.40;;;;;;;;;;5057146;28;20024;-62
2024/01/19 22:00:10;;;;;;;12.45;11.75;;;;;;;;;;5046836;28;20028;-62
2024/01/19 22:02:36;;;;;;;10.77;10.27;;;;;;;;;;5055595;28;20379;-62
2024/01/19 22:05:01;;;;;;;10.65;10.15;;;;;;;;;;5073688;28;20070;-62
2024/01/19 22:07:27;;;;;;;11.18;10.57;;;;;;;;;;5084545;28;20394;-60
2024/01/19 22:09:52;;;;;;;11.40;10.80;;;;;;;;;;5064431;28;20029;-61
2024/01/19 22:12:17;;;;;;;11.60;11.00;;;;;;;;;;5059892;28;20025;-61
2024/01/19 22:14:43;;;;;;;11.30;10.70;;;;;;;;;;5066620;28;20024;-61
2024/01/19 22:17:08;;;;;;;11.32;10.73;;;;;;;;;;5060687;28;20060;-61
2024/01/19 22:19:33;;;;;;;10.50;10.00;;;;;;;;;;5048067;28;20032;-61
2024/01/19 22:21:59;;;;;;;11.75;11.10;;;;;;;;;;5064388;28;20382;-62
2024/01/19 22:24:24;;;;;;;11.32;10.73;;;;;;;;;;5063637;28;20048;-61
2024/01/19 22:26:49;;;;;;;11.05;10.52;;;;;;;;;;5063108;28;20020;-62
2024/01/19 22:29:15;;;;;;;11.02;10.52;;;;;;;;;;5050785;28;20111;-61
2024/01/19 22:31:40;;;;;;;10.90;10.40;;;;;;;;;;5063203;28;20083;-61
2024/01/19 22:34:06;;;;;;;10.70;10.20;;;;;;;;;;5060224;28;20500;-61
2024/01/19 22:36:31;;;;;;;11.00;10.50;;;;;;;;;;5055826;28;20112;-61
2024/01/19 22:38:57;;;;;;;10.95;10.45;;;;;;;;;;5065265;28;20017;-61
2024/01/19 22:41:23;;;;;;;10.80;10.30;;;;;;;;;;5074098;28;20055;-62
2024/01/19 22:43:48;;;;;;;10.48;9.98;;;;;;;;;;5049125;28;20059;-61
2024/01/19 22:46:13;;;;;;;11.18;10.57;;;;;;;;;;5064519;28;20028;-61
2024/01/19 22:48:40;;;;;;;11.18;10.65;;;;;;;;;;5067203;28;20070;-61
2024/01/19 22:51:06;;;;;;;11.02;10.52;;;;;;;;;;5068033;28;20447;-61
2024/01/19 22:53:31;;;;;;;10.85;10.35;;;;;;;;;;5056111;28;20095;-61
2024/01/19 22:55:56;;;;;;;10.90;10.40;;;;;;;;;;5071112;28;20021;-61
2024/01/19 22:58:22;;;;;;;10.80;10.30;;;;;;;;;;5065044;28;20012;-61
2024/01/19 23:00:47;;;;;;;11.50;10.90;;;;;;;;;;5064411;28;20027;-61
2024/01/19 23:03:12;;;;;;;11.10;10.60;;;;;;;;;;5071125;28;20141;-62
2024/01/19 23:05:38;;;;;;;10.80;10.30;;;;;;;;;;5072029;28;20044;-61
2024/01/19 23:08:03;;;;;;;10.70;10.20;;;;;;;;;;5066828;28;20036;-61
2024/01/19 23:10:28;;;;;;;10.98;10.48;;;;;;;;;;5069299;28;20110;-61
2024/01/19 23:12:55;;;;;;;10.40;9.90;;;;;;;;;;5052679;28;20043;-61
2024/01/19 23:15:21;;;;;;;11.38;10.77;;;;;;;;;;5065934;28;20036;-60
2024/01/19 23:17:46;;;;;;;10.50;10.00;;;;;;;;;;5067737;28;20043;-61
2024/01/19 23:20:12;;;;;;;11.20;10.70;;;;;;;;;;5070626;28;20016;-61
2024/01/19 23:22:37;;;;;;;10.32;9.82;;;;;;;;;;5067122;28;20013;-61
2024/01/19 23:25:03;;;;;;;10.45;9.95;;;;;;;;;;5062325;28;20020;-61
2024/01/19 23:27:28;;;;;;;10.40;9.90;;;;;;;;;;5058409;28;20047;-61
2024/01/19 23:29:53;;;;;;;10.73;10.23;;;;;;;;;;5064804;28;20028;-61
2024/01/19 23:32:19;;;;;;;11.05;10.50;;;;;;;;;;5067661;28;20103;-61
2024/01/19 23:34:44;;;;;;;10.73;10.23;;;;;;;;;;5064561;28;20620;-61
2024/01/19 23:37:09;;;;;;;11.20;10.65;;;;;;;;;;5068858;28;20020;-61
2024/01/19 23:39:35;;;;;;;11.80;11.20;;;;;;;;;;5076938;28;20035;-62
2024/01/19 23:42:00;;;;;;;11.05;10.55;;;;;;;;;;5065636;28;20047;-61
2024/01/19 23:44:25;;;;;;;10.88;10.38;;;;;;;;;;5062517;28;20056;-61
2024/01/19 23:46:50;;;;;;;10.75;10.25;;;;;;;;;;5068404;28;20028;-61
2024/01/19 23:49:16;;;;;;;10.88;10.38;;;;;;;;;;5056526;28;20063;-61
2024/01/19 23:51:41;;;;;;;10.82;10.32;;;;;;;;;;5062082;28;20032;-61
2024/01/19 23:54:07;;;;;;;11.20;10.60;;;;;;;;;;5077023;28;20034;-62
2024/01/19 23:56:32;;;;;;;11.15;10.63;;;;;;;;;;5069922;28;20529;-61
2024/01/19 23:58:59;;;;;;;10.70;10.20;;;;;;;;;;5073484;28;20099;-62
